createdAt,value
2023-03-05T07:20:27.976Z,22.01
2023-03-05T07:26:27.920Z,22.01
2023-03-05T07:27:27.911Z,22.01
2023-03-05T07:28:27.915Z,22.01
2023-03-05T07:29:27.899Z,22.00
2023-03-05T07:30:27.889Z,22.01
2023-03-05T07:31:27.969Z,22.01
2023-03-05T07:32:27.927Z,22.01
2023-03-05T07:33:27.865Z,22.01
2023-03-05T07:34:27.850Z,22.00
2023-03-05T07:35:27.919Z,22.00
2023-03-05T07:36:27.830Z,22.01
2023-03-05T07:37:27.823Z,22.01
2023-03-05T07:38:27.810Z,22.00
2023-03-05T07:39:27.802Z,22.01
2023-03-05T07:40:27.887Z,22.01
2023-03-05T07:41:27.787Z,22.01
2023-03-05T07:42:27.822Z,22.01
2023-03-05T07:43:27.774Z,22.01
2023-03-05T07:44:27.758Z,22.01
2023-03-05T07:45:27.767Z,22.01
2023-03-05T07:46:27.847Z,22.02
2023-03-05T07:47:27.752Z,22.02
2023-03-05T07:48:27.732Z,22.02
2023-03-05T07:49:27.722Z,22.02
2023-03-05T07:50:27.773Z,22.02
2023-03-05T07:51:27.763Z,22.02
2023-03-05T07:52:27.719Z,22.02
2023-03-05T07:53:27.684Z,22.02
2023-03-05T07:55:27.696Z,22.02
2023-03-05T07:56:27.694Z,22.03
2023-03-05T07:57:27.658Z,22.03
2023-03-05T07:58:27.666Z,22.03
2023-03-05T07:59:27.633Z,22.04
2023-03-05T08:00:27.620Z,22.03
2023-03-05T08:01:27.649Z,22.04
2023-03-05T08:02:27.679Z,22.04
2023-03-05T08:03:27.594Z,22.03
2023-03-05T08:04:27.655Z,22.04
2023-03-05T08:05:27.578Z,22.04
2023-03-05T08:06:27.567Z,22.04
2023-03-05T08:07:27.590Z,22.05
2023-03-05T08:08:27.546Z,22.03
2023-03-05T08:09:27.542Z,22.04
2023-03-05T08:10:27.532Z,22.05
2023-03-05T08:11:27.524Z,22.04
2023-03-05T08:12:27.513Z,22.04
2023-03-05T08:13:27.502Z,22.05
2023-03-05T08:14:27.487Z,22.05
2023-03-05T08:15:27.490Z,22.05
2023-03-05T08:16:27.491Z,22.05
2023-03-05T08:17:27.470Z,22.05
2023-03-05T08:18:27.465Z,22.05
2023-03-05T08:19:27.455Z,22.05
2023-03-05T08:20:27.444Z,22.05
2023-03-05T08:21:27.436Z,22.05
2023-03-05T08:22:27.435Z,22.06
2023-03-05T08:23:27.440Z,22.06
2023-03-05T08:24:27.413Z,22.06
2023-03-05T08:25:27.392Z,22.06
2023-03-05T08:26:27.429Z,22.06
2023-03-05T08:27:27.373Z,22.06
2023-03-05T08:28:27.362Z,22.06
2023-03-05T08:29:27.357Z,22.06
2023-03-05T08:30:27.673Z,22.06
2023-03-05T08:31:27.429Z,22.06
2023-03-05T08:32:27.361Z,22.07
2023-03-05T08:33:28.778Z,22.06
2023-03-05T08:34:27.317Z,22.06
2023-03-05T08:35:27.337Z,22.06
2023-03-05T08:36:27.292Z,22.06
2023-03-05T08:37:27.284Z,22.07
2023-03-05T08:38:27.282Z,22.06
2023-03-05T08:39:27.286Z,22.06
2023-03-05T08:40:27.258Z,22.07
2023-03-05T08:41:27.270Z,22.06
2023-03-05T08:42:27.238Z,22.07
2023-03-05T08:43:27.231Z,22.07
2023-03-05T08:44:27.218Z,22.07
2023-03-05T08:45:27.212Z,22.08
2023-03-05T08:46:27.305Z,22.08
2023-03-05T08:47:27.234Z,22.08
2023-03-05T08:48:27.185Z,22.08
2023-03-05T08:49:27.182Z,22.08
2023-03-05T08:50:27.182Z,22.09
2023-03-05T08:51:27.188Z,22.09
2023-03-05T08:52:27.162Z,22.09
2023-03-05T08:53:27.141Z,22.09
2023-03-05T08:54:27.132Z,22.09
2023-03-05T08:55:27.150Z,22.09
2023-03-05T08:56:27.116Z,22.08
2023-03-05T08:57:27.109Z,22.09
2023-03-05T08:58:27.092Z,22.09
2023-03-05T08:59:27.091Z,22.09
2023-03-05T09:00:27.084Z,22.09
2023-03-05T09:01:27.114Z,22.09
2023-03-05T09:02:27.142Z,22.09
2023-03-05T09:03:27.073Z,22.09
2023-03-05T09:04:27.046Z,22.09
2023-03-05T09:05:27.028Z,22.09
2023-03-05T09:06:27.022Z,22.09
2023-03-05T09:07:27.010Z,22.10
2023-03-05T09:08:27.012Z,22.10
2023-03-05T09:09:26.995Z,22.10
2023-03-05T09:10:26.994Z,22.10
2023-03-05T09:11:27.009Z,22.11
